全部
Carnarvon Airport (Carnarvon, Western Australia) CVQ 天气
|
Carnarvon, Western Australia (CVQ / YCAR)
晴天
微风 |
|
25 °C |
CVQ终端机场天气预报
| Date | Time (AWST) | Flight Rules | Wind Dir. | Speed | Type | Height AGL (ft) | Visibility | Remarks | ||||||
|---|---|---|---|---|---|---|---|---|---|---|---|---|---|---|
CVQ近期METAR历史数据
| Date | Time (AWST) | Flight Rules | Wind Dir. | Speed | Type | Height AGL (ft) | Visibility | Temp (°C) | Temp (°F) | Dew Point (°C) | Dew Point (°F) | Rel. Humid. | Pressure | Density Altitude | Remarks |
|---|---|---|---|---|---|---|---|---|---|---|---|---|---|---|---|
| 04-五月 | 21:00 | VFR | 120° | 9 kt | 10000 meters | 25° | 77° | 5° | 41° | 28% | 1017 mb | 1,101 ft | |||
| 04-五月 | 20:00 | VFR | 130° | 9 kt | 10000 meters | 25° | 77° | 6° | 42° | 30% | 1016 mb | 1,131 ft | |||
| 04-五月 | 19:00 | VFR | 120° | 10 kt | 10000 meters | 27° | 80° | 5° | 41° | 24% | 1016 mb | 1,371 ft | |||
| 04-五月 | 18:00 | VFR | 120° | 9 kt | 10000 meters | 29° | 84° | 6° | 42° | 23% | 1016 mb | 1,611 ft | |||
| 04-五月 | 17:00 | VFR | 120° | 9 kt | 10000 meters | 31° | 87° | 7° | 44° | 22% | 1015 mb | 1,880 ft | |||
| 04-五月 | 16:00 | VFR | 210° | 10 kt | 10000 meters | 29° | 84° | 14° | 57° | 40% | 1015 mb | 1,640 ft | |||
| 04-五月 | 15:00 | VFR | 120° | 10 kt | 10000 meters | 34° | 93° | 4° | 39° | 15% | 1015 mb | 2,240 ft | Wind gusting to 21 KT | ||
| 04-五月 | 14:00 | VFR | 110° | 9 kt | 10000 meters | 32° | 89° | 3° | 37° | 16% | 1015 mb | 2,000 ft | |||
| 04-五月 | 13:00 | VFR | 70° | 9 kt | 10000 meters | 32° | 89° | 2° | 35° | 15% | 1016 mb | 1,971 ft | |||
| 04-五月 | 12:00 | VFR | 80° | 10 kt | 10000 meters | 31° | 87° | 1° | 33° | 15% | 1017 mb | 1,821 ft | |||
| 04-五月 | 11:00 | VFR | 70° | 12 kt | 10000 meters | 30° | 86° | 1° | 33° | 15% | 1018 mb | 1,671 ft | |||
| 04-五月 | 10:00 | VFR | 90° | 15 kt | 10000 meters | 28° | 82° | 1° | 33° | 17% | 1018 mb | 1,431 ft | |||
| 04-五月 | 09:00 | VFR | 90° | 14 kt | Scattered |
9,600 |
10000 meters | 24° | 75° | 0° | 32° | 20% | 1019 mb | 922 ft | |
| 04-五月 | 08:00 | VFR | 110° | 9 kt | Broken |
9,600 |
10000 meters | 21° | 69° | 1° | 33° | 26% | 1018 mb | 591 ft | |
| 04-五月 | 07:00 | VFR | 130° | 9 kt | 10000 meters | 17° | 62° | 1° | 33° | 34% | 1018 mb | 111 ft | |||
| 04-五月 | 06:00 | VFR | 130° | 9 kt | 10000 meters | 15° | 59° | 1° | 33° | 39% | 1017 mb | -99 ft | |||
| 04-五月 | 05:00 | VFR | 140° | 8 kt | 10000 meters | 16° | 60° | 1° | 33° | 36% | 1017 mb | 21 ft | |||
| 04-五月 | 04:00 | VFR | 140° | 8 kt | 10000 meters | 16° | 60° | 2° | 35° | 39% | 1017 mb | 21 ft | |||
| 04-五月 | 03:00 | VFR | 140° | 9 kt | 10000 meters | 16° | 60° | 3° | 37° | 42% | 1017 mb | 21 ft | |||
| 04-五月 | 02:00 | VFR | 160° | 8 kt | 10000 meters | 15° | 59° | 4° | 39° | 48% | 1017 mb | -99 ft | |||
| 04-五月 | 01:00 | VFR | 160° | 7 kt | 10000 meters | 16° | 60° | 5° | 41° | 48% | 1017 mb | 21 ft | |||
| 04-五月 | 00:00 | VFR | 160° | 7 kt | 10000 meters | 17° | 62° | 5° | 41° | 45% | 1017 mb | 141 ft | |||
| 03-五月 | 23:00 | VFR | 160° | 8 kt | 10000 meters | 18° | 64° | 6° | 42° | 45% | 1017 mb | 261 ft | |||
| 03-五月 | 22:00 | VFR | 160° | 7 kt | 10000 meters | 19° | 66° | 8° | 46° | 49% | 1017 mb | 381 ft |
登录
| 您的浏览器不支持. 升级您的浏览器 |
